sensor_id;sensor_type;location;lat;lon;timestamp;pressure;altitude;pressure_sealevel;temperature;humidity
34979;BME280;21185;50.978;13.720;2024-03-23T00:53:56;97463.69;;;12.18;61.73
34979;BME280;21185;50.978;13.720;2024-03-23T00:58:57;97466.81;;;12.07;61.66
34979;BME280;21185;50.978;13.720;2024-03-23T01:03:58;97473.59;;;12.01;62.21
34979;BME280;21185;50.978;13.720;2024-03-23T01:09:00;97469.56;;;11.98;62.09
34979;BME280;21185;50.978;13.720;2024-03-23T01:14:01;97462.75;;;11.97;62.46
34979;BME280;21185;50.978;13.720;2024-03-23T01:19:02;97447.53;;;11.94;62.81
34979;BME280;21185;50.978;13.720;2024-03-23T01:24:04;97440.09;;;11.85;63.08
34979;BME280;21185;50.978;13.720;2024-03-23T01:29:05;97435.38;;;11.74;63.08
34979;BME280;21185;50.978;13.720;2024-03-23T01:34:06;97433.31;;;11.62;63.24
34979;BME280;21185;50.978;13.720;2024-03-23T01:39:09;97423.06;;;11.54;63.32
34979;BME280;21185;50.978;13.720;2024-03-23T01:44:10;97423.06;;;11.54;63.74
34979;BME280;21185;50.978;13.720;2024-03-23T01:49:12;97415.31;;;11.61;63.95
34979;BME280;21185;50.978;13.720;2024-03-23T01:54:13;97408.13;;;11.63;64.08
34979;BME280;21185;50.978;13.720;2024-03-23T01:59:15;97403.91;;;11.62;65.20
34979;BME280;21185;50.978;13.720;2024-03-23T02:04:16;97403.72;;;11.63;65.45
34979;BME280;21185;50.978;13.720;2024-03-23T02:09:17;97392.94;;;11.66;65.73
34979;BME280;21185;50.978;13.720;2024-03-23T02:14:19;97387.75;;;11.66;66.16
34979;BME280;21185;50.978;13.720;2024-03-23T02:19:20;97373.78;;;11.67;66.44
34979;BME280;21185;50.978;13.720;2024-03-23T02:24:21;97365.97;;;11.67;66.65
34979;BME280;21185;50.978;13.720;2024-03-23T02:29:22;97359.41;;;11.72;66.72
34979;BME280;21185;50.978;13.720;2024-03-23T02:34:23;97356.41;;;11.75;66.92
34979;BME280;21185;50.978;13.720;2024-03-23T02:39:24;97342.28;;;11.77;66.98
34979;BME280;21185;50.978;13.720;2024-03-23T02:44:25;97351.03;;;11.76;67.24
34979;BME280;21185;50.978;13.720;2024-03-23T02:49:26;97341.81;;;11.74;67.31
34979;BME280;21185;50.978;13.720;2024-03-23T02:54:27;97338.81;;;11.70;67.32
34979;BME280;21185;50.978;13.720;2024-03-23T02:59:28;97340.97;;;11.66;67.53
34979;BME280;21185;50.978;13.720;2024-03-23T03:04:30;97341.38;;;11.63;67.65
34979;BME280;21185;50.978;13.720;2024-03-23T03:09:31;97321.75;;;11.61;67.70
34979;BME280;21185;50.978;13.720;2024-03-23T03:14:34;97303.31;;;11.49;68.05
34979;BME280;21185;50.978;13.720;2024-03-23T03:19:35;97298.47;;;11.40;68.21
34979;BME280;21185;50.978;13.720;2024-03-23T03:24:36;97301.22;;;11.31;68.15
34979;BME280;21185;50.978;13.720;2024-03-23T03:29:37;97286.72;;;11.16;68.29
34979;BME280;21185;50.978;13.720;2024-03-23T03:34:38;97290.25;;;11.08;68.18
34979;BME280;21185;50.978;13.720;2024-03-23T03:39:39;97293.03;;;11.07;68.22
34979;BME280;21185;50.978;13.720;2024-03-23T03:44:40;97289.22;;;11.02;68.13
34979;BME280;21185;50.978;13.720;2024-03-23T03:49:42;97292.00;;;11.01;68.24
34979;BME280;21185;50.978;13.720;2024-03-23T03:54:43;97269.81;;;10.98;68.53
34979;BME280;21185;50.978;13.720;2024-03-23T03:59:44;97253.44;;;10.98;68.65
34979;BME280;21185;50.978;13.720;2024-03-23T04:04:45;97249.63;;;10.94;68.55
34979;BME280;21185;50.978;13.720;2024-03-23T04:09:49;97249.16;;;10.84;68.45
34979;BME280;21185;50.978;13.720;2024-03-23T04:14:50;97242.44;;;10.68;68.49
34979;BME280;21185;50.978;13.720;2024-03-23T04:19:51;97235.78;;;10.59;68.48
34979;BME280;21185;50.978;13.720;2024-03-23T04:24:54;97233.94;;;10.53;68.41
34979;BME280;21185;50.978;13.720;2024-03-23T04:29:55;97223.31;;;10.48;68.33
34979;BME280;21185;50.978;13.720;2024-03-23T04:34:57;97217.53;;;10.46;68.28
34979;BME280;21185;50.978;13.720;2024-03-23T04:39:58;97199.13;;;10.41;68.23
34979;BME280;21185;50.978;13.720;2024-03-23T04:44:59;97193.25;;;10.25;68.45
34979;BME280;21185;50.978;13.720;2024-03-23T04:50:01;97182.25;;;10.23;68.70
34979;BME280;21185;50.978;13.720;2024-03-23T04:55:03;97163.50;;;10.21;68.64
34979;BME280;21185;50.978;13.720;2024-03-23T05:00:05;97145.06;;;10.16;68.93
34979;BME280;21185;50.978;13.720;2024-03-23T05:05:17;97125.31;;;10.15;69.17
34979;BME280;21185;50.978;13.720;2024-03-23T05:10:19;97117.94;;;10.12;69.15
34979;BME280;21185;50.978;13.720;2024-03-23T05:15:21;97114.09;;;10.08;69.48
34979;BME280;21185;50.978;13.720;2024-03-23T05:20:22;97097.56;;;10.09;69.53
34979;BME280;21185;50.978;13.720;2024-03-23T05:25:24;97103.00;;;10.14;69.37
34979;BME280;21185;50.978;13.720;2024-03-23T05:30:25;97088.50;;;10.20;69.45
34979;BME280;21185;50.978;13.720;2024-03-23T05:35:26;97088.38;;;10.28;69.42
34979;BME280;21185;50.978;13.720;2024-03-23T05:40:30;97076.66;;;10.38;69.49
34979;BME280;21185;50.978;13.720;2024-03-23T05:45:34;97084.28;;;10.47;69.36
34979;BME280;21185;50.978;13.720;2024-03-23T05:50:35;97070.16;;;10.56;69.17
34979;BME280;21185;50.978;13.720;2024-03-23T05:55:36;97058.41;;;10.60;69.45
34979;BME280;21185;50.978;13.720;2024-03-23T06:00:38;97036.88;;;10.66;69.74
34979;BME280;21185;50.978;13.720;2024-03-23T06:05:39;97030.09;;;10.65;70.08
34979;BME280;21185;50.978;13.720;2024-03-23T06:10:40;97019.31;;;10.61;70.31
34979;BME280;21185;50.978;13.720;2024-03-23T06:15:42;97012.75;;;10.65;70.50
34979;BME280;21185;50.978;13.720;2024-03-23T06:20:43;96999.34;;;10.62;70.58
34979;BME280;21185;50.978;13.720;2024-03-23T06:25:44;96998.13;;;10.58;70.84
34979;BME280;21185;50.978;13.720;2024-03-23T06:30:45;96981.19;;;10.62;71.03
34979;BME280;21185;50.978;13.720;2024-03-23T06:35:50;96959.84;;;10.60;71.29
34979;BME280;21185;50.978;13.720;2024-03-23T06:40:53;96944.06;;;10.55;71.52
34979;BME280;21185;50.978;13.720;2024-03-23T06:45:54;96923.69;;;10.52;71.90
34979;BME280;21185;50.978;13.720;2024-03-23T06:50:57;96932.09;;;10.54;71.86
34979;BME280;21185;50.978;13.720;2024-03-23T06:55:58;96932.31;;;10.59;71.84
34979;BME280;21185;50.978;13.720;2024-03-23T07:01:00;96927.94;;;10.66;71.98
34979;BME280;21185;50.978;13.720;2024-03-23T07:06:03;96924.56;;;10.72;71.98
34979;BME280;21185;50.978;13.720;2024-03-23T07:11:04;96928.75;;;10.73;72.00
34979;BME280;21185;50.978;13.720;2024-03-23T07:16:06;96917.38;;;10.74;72.04
34979;BME280;21185;50.978;13.720;2024-03-23T07:21:07;96885.66;;;10.79;72.08
34979;BME280;21185;50.978;13.720;2024-03-23T07:26:08;96856.72;;;10.75;72.33
34979;BME280;21185;50.978;13.720;2024-03-23T07:31:11;96855.09;;;10.74;72.55
34979;BME280;21185;50.978;13.720;2024-03-23T07:36:13;96837.97;;;10.80;72.44
34979;BME280;21185;50.978;13.720;2024-03-23T07:41:18;96835.75;;;10.90;72.87
34979;BME280;21185;50.978;13.720;2024-03-23T07:46:20;96832.38;;;11.02;72.76
34979;BME280;21185;50.978;13.720;2024-03-23T07:51:22;96819.00;;;11.19;72.79
34979;BME280;21185;50.978;13.720;2024-03-23T07:56:23;96805.81;;;11.27;73.15
34979;BME280;21185;50.978;13.720;2024-03-23T08:01:25;96793.03;;;11.25;73.50
34979;BME280;21185;50.978;13.720;2024-03-23T08:06:26;96786.03;;;11.19;74.20
34979;BME280;21185;50.978;13.720;2024-03-23T08:11:28;96771.06;;;11.15;74.74
34979;BME280;21185;50.978;13.720;2024-03-23T08:16:31;96767.06;;;11.19;74.82
34979;BME280;21185;50.978;13.720;2024-03-23T08:21:35;96757.88;;;11.23;74.79
34979;BME280;21185;50.978;13.720;2024-03-23T08:26:36;96747.69;;;11.28;74.90
34979;BME280;21185;50.978;13.720;2024-03-23T08:31:39;96737.38;;;11.59;74.86
34979;BME280;21185;50.978;13.720;2024-03-23T08:36:41;96725.00;;;12.06;74.73
34979;BME280;21185;50.978;13.720;2024-03-23T08:41:42;96738.84;;;12.31;74.26
34979;BME280;21185;50.978;13.720;2024-03-23T08:46:46;96738.63;;;12.33;74.71
34979;BME280;21185;50.978;13.720;2024-03-23T08:51:53;96741.69;;;12.23;75.54
34979;BME280;21185;50.978;13.720;2024-03-23T08:56:55;96742.53;;;12.17;75.40
34979;BME280;21185;50.978;13.720;2024-03-23T09:01:56;96735.75;;;12.16;75.45
34979;BME280;21185;50.978;13.720;2024-03-23T09:06:58;96734.50;;;12.25;75.50
34979;BME280;21185;50.978;13.720;2024-03-23T09:12:00;96736.00;;;12.40;75.09
34979;BME280;21185;50.978;13.720;2024-03-23T09:17:02;96737.50;;;12.54;73.95
34979;BME280;21185;50.978;13.720;2024-03-23T09:22:03;96746.03;;;12.61;73.11
34979;BME280;21185;50.978;13.720;2024-03-23T09:27:05;96763.69;;;12.59;73.19
34979;BME280;21185;50.978;13.720;2024-03-23T09:32:06;96763.50;;;12.54;73.34
34979;BME280;21185;50.978;13.720;2024-03-23T09:37:07;96783.78;;;12.45;73.84
34979;BME280;21185;50.978;13.720;2024-03-23T09:42:09;96777.88;;;12.31;73.52
34979;BME280;21185;50.978;13.720;2024-03-23T09:47:10;96823.94;;;12.18;73.81
34979;BME280;21185;50.978;13.720;2024-03-23T09:52:11;96834.09;;;11.81;75.28
34979;BME280;21185;50.978;13.720;2024-03-23T09:57:12;96847.13;;;11.48;76.97
34979;BME280;21185;50.978;13.720;2024-03-23T10:02:15;96897.69;;;11.13;78.39
34979;BME280;21185;50.978;13.720;2024-03-23T10:07:19;96919.19;;;10.80;77.97
34979;BME280;21185;50.978;13.720;2024-03-23T10:12:22;96955.44;;;10.54;77.50
34979;BME280;21185;50.978;13.720;2024-03-23T10:17:25;97000.19;;;10.21;76.54
34979;BME280;21185;50.978;13.720;2024-03-23T10:22:26;97032.19;;;9.86;75.85
34979;BME280;21185;50.978;13.720;2024-03-23T10:27:27;97069.03;;;9.60;74.83
34979;BME280;21185;50.978;13.720;2024-03-23T10:32:28;97089.50;;;9.33;73.85
34979;BME280;21185;50.978;13.720;2024-03-23T10:37:29;97124.88;;;9.12;72.86
34979;BME280;21185;50.978;13.720;2024-03-23T10:42:33;97159.59;;;8.88;72.40
34979;BME280;21185;50.978;13.720;2024-03-23T10:47:35;97178.22;;;8.68;72.40
34979;BME280;21185;50.978;13.720;2024-03-23T10:52:37;97223.13;;;8.53;72.04
34979;BME280;21185;50.978;13.720;2024-03-23T11:02:52;97250.78;;;8.52;72.75
34979;BME280;21185;50.978;13.720;2024-03-23T11:07:54;97253.63;;;8.57;72.39
34979;BME280;21185;50.978;13.720;2024-03-23T11:12:56;97264.16;;;8.56;72.76
34979;BME280;21185;50.978;13.720;2024-03-23T11:18:07;97245.25;;;8.55;72.55
34979;BME280;21185;50.978;13.720;2024-03-23T11:23:27;97252.69;;;8.35;72.30
34979;BME280;21185;50.978;13.720;2024-03-23T11:28:30;97260.34;;;8.21;73.08
34979;BME280;21185;50.978;13.720;2024-03-23T11:33:31;97281.69;;;8.15;73.37
34979;BME280;21185;50.978;13.720;2024-03-23T11:38:36;97306.06;;;8.20;73.41
34979;BME280;21185;50.978;13.720;2024-03-23T11:43:38;97311.69;;;8.24;73.15
34979;BME280;21185;50.978;13.720;2024-03-23T11:48:39;97327.66;;;8.27;72.91
34979;BME280;21185;50.978;13.720;2024-03-23T11:53:40;97324.13;;;8.20;72.49
34979;BME280;21185;50.978;13.720;2024-03-23T11:58:41;97323.56;;;8.10;73.14
34979;BME280;21185;50.978;13.720;2024-03-23T12:03:44;97330.13;;;8.21;73.67
34979;BME280;21185;50.978;13.720;2024-03-23T12:08:47;97323.97;;;8.22;73.25
34979;BME280;21185;50.978;13.720;2024-03-23T12:13:49;97316.44;;;8.12;72.36
34979;BME280;21185;50.978;13.720;2024-03-23T12:18:51;97324.34;;;8.10;72.97
34979;BME280;21185;50.978;13.720;2024-03-23T12:23:53;97331.13;;;8.11;72.57
34979;BME280;21185;50.978;13.720;2024-03-23T12:28:54;97324.81;;;8.14;72.09
34979;BME280;21185;50.978;13.720;2024-03-23T12:33:55;97320.91;;;8.18;71.90
34979;BME280;21185;50.978;13.720;2024-03-23T12:38:56;97317.66;;;8.24;71.40
34979;BME280;21185;50.978;13.720;2024-03-23T12:43:58;97305.19;;;8.28;71.00
34979;BME280;21185;50.978;13.720;2024-03-23T12:49:00;97335.41;;;8.27;70.48
34979;BME280;21185;50.978;13.720;2024-03-23T12:54:01;97349.00;;;8.21;70.17
34979;BME280;21185;50.978;13.720;2024-03-23T12:59:03;97371.00;;;8.17;70.10
34979;BME280;21185;50.978;13.720;2024-03-23T13:04:04;97354.34;;;8.20;69.60
34979;BME280;21185;50.978;13.720;2024-03-23T13:09:05;97330.50;;;8.09;68.93
34979;BME280;21185;50.978;13.720;2024-03-23T13:14:09;97337.94;;;8.04;68.40
34979;BME280;21185;50.978;13.720;2024-03-23T13:19:10;97369.50;;;7.92;68.54
34979;BME280;21185;50.978;13.720;2024-03-23T13:24:11;97405.03;;;7.82;68.45
34979;BME280;21185;50.978;13.720;2024-03-23T13:29:12;97434.88;;;7.92;68.75
34979;BME280;21185;50.978;13.720;2024-03-23T13:34:13;97423.66;;;8.16;68.79
34979;BME280;21185;50.978;13.720;2024-03-23T13:39:16;97437.47;;;8.31;68.39
34979;BME280;21185;50.978;13.720;2024-03-23T13:44:17;97411.31;;;8.34;67.69
34979;BME280;21185;50.978;13.720;2024-03-23T13:49:29;97390.66;;;8.34;66.71
34979;BME280;21185;50.978;13.720;2024-03-23T13:54:32;97390.13;;;8.39;66.88
34979;BME280;21185;50.978;13.720;2024-03-23T13:59:33;97358.72;;;8.50;66.60
34979;BME280;21185;50.978;13.720;2024-03-23T14:04:34;97347.34;;;8.82;66.77
34979;BME280;21185;50.978;13.720;2024-03-23T14:09:36;97377.88;;;8.87;65.85
34979;BME280;21185;50.978;13.720;2024-03-23T14:14:37;97397.72;;;8.94;65.07
34979;BME280;21185;50.978;13.720;2024-03-23T14:19:38;97414.38;;;8.92;64.58
34979;BME280;21185;50.978;13.720;2024-03-23T14:24:40;97404.50;;;8.95;65.00
34979;BME280;21185;50.978;13.720;2024-03-23T14:29:46;97416.81;;;8.93;63.44
34979;BME280;21185;50.978;13.720;2024-03-23T14:34:49;97393.75;;;8.84;62.44
34979;BME280;21185;50.978;13.720;2024-03-23T14:39:50;97392.44;;;8.88;62.52
34979;BME280;21185;50.978;13.720;2024-03-23T14:44:52;97378.78;;;8.94;62.52
34979;BME280;21185;50.978;13.720;2024-03-23T14:49:54;97376.84;;;8.96;62.19
34979;BME280;21185;50.978;13.720;2024-03-23T14:54:55;97376.03;;;8.95;61.78
34979;BME280;21185;50.978;13.720;2024-03-23T14:59:57;97377.75;;;9.03;62.12
34979;BME280;21185;50.978;13.720;2024-03-23T15:04:58;97375.00;;;9.04;62.11
34979;BME280;21185;50.978;13.720;2024-03-23T15:10:00;97367.84;;;9.06;62.01
34979;BME280;21185;50.978;13.720;2024-03-23T15:15:02;97362.34;;;9.09;62.05
34979;BME280;21185;50.978;13.720;2024-03-23T15:20:03;97361.97;;;9.13;62.07
34979;BME280;21185;50.978;13.720;2024-03-23T15:25:07;97362.72;;;9.21;62.18
34979;BME280;21185;50.978;13.720;2024-03-23T15:30:12;97357.53;;;9.21;61.97
34979;BME280;21185;50.978;13.720;2024-03-23T15:35:13;97351.84;;;9.26;62.24
34979;BME280;21185;50.978;13.720;2024-03-23T15:40:15;97340.78;;;9.32;62.26
34979;BME280;21185;50.978;13.720;2024-03-23T15:45:41;97340.88;;;9.38;62.48
34979;BME280;21185;50.978;13.720;2024-03-23T15:50:53;97340.59;;;9.33;61.71
34979;BME280;21185;50.978;13.720;2024-03-23T15:55:58;97324.78;;;9.28;62.21
34979;BME280;21185;50.978;13.720;2024-03-23T16:01:09;97331.94;;;9.26;62.42
34979;BME280;21185;50.978;13.720;2024-03-23T16:06:12;97327.28;;;9.22;62.23
34979;BME280;21185;50.978;13.720;2024-03-23T16:11:13;97323.44;;;9.18;62.63
34979;BME280;21185;50.978;13.720;2024-03-23T16:16:15;97317.63;;;9.16;62.79
34979;BME280;21185;50.978;13.720;2024-03-23T16:21:17;97330.41;;;9.17;62.80
34979;BME280;21185;50.978;13.720;2024-03-23T16:26:18;97330.56;;;9.16;62.63
34979;BME280;21185;50.978;13.720;2024-03-23T16:31:19;97354.22;;;9.13;62.10
34979;BME280;21185;50.978;13.720;2024-03-23T16:36:21;97366.72;;;9.09;61.86
34979;BME280;21185;50.978;13.720;2024-03-23T16:41:22;97366.38;;;8.89;62.09
34979;BME280;21185;50.978;13.720;2024-03-23T16:46:24;97367.13;;;8.75;62.65
34979;BME280;21185;50.978;13.720;2024-03-23T16:51:25;97381.50;;;8.55;62.95
34979;BME280;21185;50.978;13.720;2024-03-23T16:56:27;97390.78;;;8.41;63.25
34979;BME280;21185;50.978;13.720;2024-03-23T17:01:28;97390.16;;;8.31;63.65
34979;BME280;21185;50.978;13.720;2024-03-23T17:06:30;97387.09;;;8.27;64.16
34979;BME280;21185;50.978;13.720;2024-03-23T17:11:34;97396.34;;;8.22;64.48
34979;BME280;21185;50.978;13.720;2024-03-23T17:16:35;97400.41;;;8.16;64.50
34979;BME280;21185;50.978;13.720;2024-03-23T17:21:37;97409.13;;;8.15;64.55
34979;BME280;21185;50.978;13.720;2024-03-23T17:26:41;97404.63;;;8.09;64.80
34979;BME280;21185;50.978;13.720;2024-03-23T17:31:43;97402.88;;;8.01;64.71
34979;BME280;21185;50.978;13.720;2024-03-23T17:36:45;97401.72;;;8.04;65.04
34979;BME280;21185;50.978;13.720;2024-03-23T17:41:46;97387.53;;;8.00;65.03
34979;BME280;21185;50.978;13.720;2024-03-23T17:46:47;97395.16;;;7.93;65.17
34979;BME280;21185;50.978;13.720;2024-03-23T17:51:48;97380.50;;;7.86;64.74
34979;BME280;21185;50.978;13.720;2024-03-23T17:56:50;97396.66;;;7.79;65.05
34979;BME280;21185;50.978;13.720;2024-03-23T18:01:51;97400.88;;;7.72;65.13
34979;BME280;21185;50.978;13.720;2024-03-23T18:06:52;97400.06;;;7.64;65.12
34979;BME280;21185;50.978;13.720;2024-03-23T18:11:54;97405.72;;;7.59;65.31
34979;BME280;21185;50.978;13.720;2024-03-23T18:16:56;97406.38;;;7.53;65.61
34979;BME280;21185;50.978;13.720;2024-03-23T18:21:57;97413.97;;;7.46;65.46
34979;BME280;21185;50.978;13.720;2024-03-23T18:26:58;97409.31;;;7.42;65.64
34979;BME280;21185;50.978;13.720;2024-03-23T18:31:59;97407.06;;;7.39;65.31
34979;BME280;21185;50.978;13.720;2024-03-23T18:37:00;97406.75;;;7.34;65.44
34979;BME280;21185;50.978;13.720;2024-03-23T18:42:02;97407.69;;;7.33;65.28
34979;BME280;21185;50.978;13.720;2024-03-23T18:47:04;97402.53;;;7.33;65.10
34979;BME280;21185;50.978;13.720;2024-03-23T18:52:05;97404.31;;;7.32;65.39
34979;BME280;21185;50.978;13.720;2024-03-23T18:57:06;97399.16;;;7.32;65.04
34979;BME280;21185;50.978;13.720;2024-03-23T19:02:08;97391.75;;;7.29;64.94
34979;BME280;21185;50.978;13.720;2024-03-23T19:07:10;97394.66;;;7.26;64.99
34979;BME280;21185;50.978;13.720;2024-03-23T19:12:11;97381.91;;;7.25;65.06
34979;BME280;21185;50.978;13.720;2024-03-23T19:17:12;97387.06;;;7.25;64.95
34979;BME280;21185;50.978;13.720;2024-03-23T19:22:14;97390.94;;;7.21;64.54
34979;BME280;21185;50.978;13.720;2024-03-23T19:27:15;97390.63;;;7.15;64.26
34979;BME280;21185;50.978;13.720;2024-03-23T19:32:16;97390.78;;;7.14;64.36
34979;BME280;21185;50.978;13.720;2024-03-23T19:37:18;97381.44;;;7.13;64.39
34979;BME280;21185;50.978;13.720;2024-03-23T19:42:19;97381.59;;;7.11;64.36
34979;BME280;21185;50.978;13.720;2024-03-23T19:47:20;97395.47;;;7.10;64.56
34979;BME280;21185;50.978;13.720;2024-03-23T19:52:22;97393.19;;;7.07;64.26
34979;BME280;21185;50.978;13.720;2024-03-23T19:57:27;97393.69;;;7.03;64.31
34979;BME280;21185;50.978;13.720;2024-03-23T20:02:32;97398.34;;;6.99;64.49
34979;BME280;21185;50.978;13.720;2024-03-23T20:07:35;97402.88;;;6.97;64.38
34979;BME280;21185;50.978;13.720;2024-03-23T20:12:36;97395.47;;;6.94;64.33
34979;BME280;21185;50.978;13.720;2024-03-23T20:17:37;97391.44;;;6.92;64.61
34979;BME280;21185;50.978;13.720;2024-03-23T20:22:39;97394.47;;;6.87;64.40
34979;BME280;21185;50.978;13.720;2024-03-23T20:27:40;97386.59;;;6.80;64.41
34979;BME280;21185;50.978;13.720;2024-03-23T20:32:41;97387.38;;;6.73;64.59
34979;BME280;21185;50.978;13.720;2024-03-23T20:37:42;97385.94;;;6.70;64.45
34979;BME280;21185;50.978;13.720;2024-03-23T20:42:43;97387.22;;;6.66;64.53
34979;BME280;21185;50.978;13.720;2024-03-23T20:47:46;97383.50;;;6.61;64.65
34979;BME280;21185;50.978;13.720;2024-03-23T20:52:47;97381.06;;;6.59;64.51
34979;BME280;21185;50.978;13.720;2024-03-23T20:57:48;97363.34;;;6.56;64.24
34979;BME280;21185;50.978;13.720;2024-03-23T21:02:52;97371.09;;;6.56;64.42
34979;BME280;21185;50.978;13.720;2024-03-23T21:07:53;97365.13;;;6.56;64.45
34979;BME280;21185;50.978;13.720;2024-03-23T21:12:54;97370.28;;;6.56;64.44
34979;BME280;21185;50.978;13.720;2024-03-23T21:17:56;97366.25;;;6.53;64.46
34979;BME280;21185;50.978;13.720;2024-03-23T21:22:57;97358.84;;;6.50;64.59
34979;BME280;21185;50.978;13.720;2024-03-23T21:27:58;97353.34;;;6.45;64.29
34979;BME280;21185;50.978;13.720;2024-03-23T21:33:00;97359.63;;;6.42;63.94
34979;BME280;21185;50.978;13.720;2024-03-23T21:38:02;97354.78;;;6.39;64.07
34979;BME280;21185;50.978;13.720;2024-03-23T21:43:06;97345.59;;;6.37;63.97
34979;BME280;21185;50.978;13.720;2024-03-23T21:48:07;97342.38;;;6.35;63.71
34979;BME280;21185;50.978;13.720;2024-03-23T21:53:09;97342.03;;;6.30;63.33
34979;BME280;21185;50.978;13.720;2024-03-23T21:58:10;97354.44;;;6.26;63.28
34979;BME280;21185;50.978;13.720;2024-03-23T22:03:14;97346.06;;;6.24;63.64
34979;BME280;21185;50.978;13.720;2024-03-23T22:08:16;97344.28;;;6.25;63.59
34979;BME280;21185;50.978;13.720;2024-03-23T22:13:18;97347.97;;;6.22;63.36
34979;BME280;21185;50.978;13.720;2024-03-23T22:18:19;97344.09;;;6.18;63.59
34979;BME280;21185;50.978;13.720;2024-03-23T22:23:21;97343.47;;;6.16;63.41
34979;BME280;21185;50.978;13.720;2024-03-23T22:28:23;97342.00;;;6.13;63.37
34979;BME280;21185;50.978;13.720;2024-03-23T22:33:25;97342.16;;;6.12;63.16
34979;BME280;21185;50.978;13.720;2024-03-23T22:38:28;97333.78;;;6.10;63.15
34979;BME280;21185;50.978;13.720;2024-03-23T22:43:32;97324.75;;;6.06;63.33
34979;BME280;21185;50.978;13.720;2024-03-23T22:48:34;97336.03;;;6.05;63.17
34979;BME280;21185;50.978;13.720;2024-03-23T22:53:36;97333.09;;;6.00;63.05
34979;BME280;21185;50.978;13.720;2024-03-23T22:58:38;97335.84;;;5.98;63.29
34979;BME280;21185;50.978;13.720;2024-03-23T23:03:40;97330.19;;;5.95;63.17
34979;BME280;21185;50.978;13.720;2024-03-23T23:08:41;97325.34;;;5.92;63.31
34979;BME280;21185;50.978;13.720;2024-03-23T23:13:42;97313.44;;;5.91;63.16
34979;BME280;21185;50.978;13.720;2024-03-23T23:18:43;97318.75;;;5.89;63.21
34979;BME280;21185;50.978;13.720;2024-03-23T23:23:45;97313.72;;;5.88;63.02
34979;BME280;21185;50.978;13.720;2024-03-23T23:28:46;97322.41;;;5.86;63.09
34979;BME280;21185;50.978;13.720;2024-03-23T23:33:48;97312.44;;;5.83;63.32
34979;BME280;21185;50.978;13.720;2024-03-23T23:38:49;97313.69;;;5.79;63.14
34979;BME280;21185;50.978;13.720;2024-03-23T23:43:55;97310.63;;;5.76;63.32
34979;BME280;21185;50.978;13.720;2024-03-23T23:48:58;97306.59;;;5.73;63.04
34979;BME280;21185;50.978;13.720;2024-03-23T23:54:01;97300.94;;;5.70;63.20
34979;BME280;21185;50.978;13.720;2024-03-23T23:59:09;97296.13;;;5.67;63.27
